KAL458 VHHH-RKSI
Flight info
| Callsign | KAL458 |
|---|---|
| Flight time | N/A |
| Altitude | 39000 |
| Route | DALO1C DALOL V631 ENVAR M750 ANLOT B1 APU DCT DRAKE Q11 WP900 L4 LIPLO Y741 ATOTI Y722 OLMEN OLME2H |
| Aircraft | B773/H-V/N |
Departure
| Time | N/A |
|---|---|
| Airport | Hong Kong International Airport (VHHH) |
Arrival
| Time | 2026-05-06 13:50 |
|---|---|
| Airport | Incheon International Airport (RKSI) |
| Time | Latitude | Longitude | Altitude | Speed | Heading |
|---|---|---|---|---|---|
| 2026-05-06 13:20 | 35.80587 | 126.93928 | 39037 ft | 481 kts | 358° |
| 2026-05-06 13:20 | 35.87219 | 126.94659 | 39040 ft | 481 kts | 358° |
| 2026-05-06 13:21 | 35.92786 | 126.95273 | 39035 ft | 482 kts | 358° |
| 2026-05-06 13:21 | 36.00594 | 126.96137 | 39032 ft | 483 kts | 358° |
| 2026-05-06 13:22 | 36.07270 | 126.96878 | 39030 ft | 478 kts | 358° |
| 2026-05-06 13:22 | 36.12797 | 126.97490 | 39036 ft | 482 kts | 358° |
| 2026-05-06 13:23 | 36.20545 | 126.98350 | 39035 ft | 484 kts | 358° |
| 2026-05-06 13:23 | 36.26079 | 126.98967 | 39034 ft | 483 kts | 358° |
| 2026-05-06 13:24 | 36.33857 | 126.99835 | 39032 ft | 481 kts | 358° |
| 2026-05-06 13:24 | 36.37136 | 127.00208 | 39003 ft | 465 kts | 357° |
| 2026-05-06 13:24 | 36.40275 | 127.00331 | 38830 ft | 446 kts | 351° |
| 2026-05-06 13:24 | 36.43338 | 127.00232 | 38239 ft | 441 kts | 350° |
| 2026-05-06 13:25 | 36.45380 | 127.00152 | 37542 ft | 444 kts | 350° |
| 2026-05-06 13:25 | 36.49557 | 126.99983 | 35844 ft | 456 kts | 351° |
| 2026-05-06 13:25 | 36.51690 | 126.99899 | 35008 ft | 462 kts | 352° |
| 2026-05-06 13:25 | 36.55959 | 126.99736 | 33483 ft | 469 kts | 352° |
| 2026-05-06 13:26 | 36.59258 | 126.99612 | 32119 ft | 482 kts | 352° |
| 2026-05-06 13:26 | 36.62564 | 126.99490 | 30919 ft | 489 kts | 352° |
| 2026-05-06 13:26 | 36.65908 | 126.99339 | 30154 ft | 484 kts | 349° |
| 2026-05-06 13:26 | 36.69191 | 126.98703 | 29618 ft | 470 kts | 340° |
| 2026-05-06 13:27 | 36.72239 | 126.97488 | 29057 ft | 456 kts | 332° |
| 2026-05-06 13:27 | 36.74146 | 126.96358 | 28682 ft | 448 kts | 326° |
| 2026-05-06 13:27 | 36.77497 | 126.93509 | 27805 ft | 436 kts | 314° |
| 2026-05-06 13:27 | 36.79015 | 126.91808 | 27374 ft | 432 kts | 312° |
| 2026-05-06 13:28 | 36.81173 | 126.89278 | 26801 ft | 426 kts | 312° |
| 2026-05-06 13:28 | 36.84005 | 126.85886 | 25992 ft | 421 kts | 311° |
| 2026-05-06 13:28 | 36.86087 | 126.83351 | 25377 ft | 417 kts | 311° |
| 2026-05-06 13:28 | 36.88136 | 126.80829 | 24756 ft | 414 kts | 311° |
| 2026-05-06 13:29 | 36.89489 | 126.79154 | 24354 ft | 412 kts | 311° |
| 2026-05-06 13:29 | 36.92191 | 126.75787 | 23568 ft | 407 kts | 311° |
| 2026-05-06 13:29 | 36.94171 | 126.73308 | 23002 ft | 403 kts | 311° |
| 2026-05-06 13:29 | 36.95469 | 126.71677 | 22624 ft | 401 kts | 310° |
| 2026-05-06 13:30 | 36.97433 | 126.69207 | 22048 ft | 398 kts | 310° |
| 2026-05-06 13:30 | 36.99968 | 126.65914 | 21219 ft | 392 kts | 306° |
| 2026-05-06 13:30 | 37.01019 | 126.64154 | 20847 ft | 387 kts | 300° |
| 2026-05-06 13:30 | 37.02637 | 126.60162 | 20027 ft | 380 kts | 288° |
| 2026-05-06 13:31 | 37.03271 | 126.58115 | 19625 ft | 379 kts | 291° |
| 2026-05-06 13:31 | 37.04915 | 126.54269 | 18849 ft | 378 kts | 300° |
| 2026-05-06 13:31 | 37.06438 | 126.51576 | 18261 ft | 377 kts | 304° |
| 2026-05-06 13:31 | 37.08112 | 126.49042 | 17657 ft | 377 kts | 308° |
| 2026-05-06 13:32 | 37.09270 | 126.47445 | 17401 ft | 372 kts | 309° |
| 2026-05-06 13:32 | 37.11538 | 126.44418 | 17210 ft | 353 kts | 310° |
| 2026-05-06 13:32 | 37.13202 | 126.42306 | 17102 ft | 339 kts | 311° |
| 2026-05-06 13:32 | 37.14871 | 126.40295 | 17059 ft | 324 kts | 313° |
| 2026-05-06 13:33 | 37.15955 | 126.39050 | 17036 ft | 315 kts | 313° |
| 2026-05-06 13:33 | 37.17567 | 126.37270 | 16997 ft | 300 kts | 315° |
| 2026-05-06 13:33 | 37.19110 | 126.35613 | 16972 ft | 286 kts | 315° |
| 2026-05-06 13:33 | 37.20605 | 126.34025 | 16955 ft | 272 kts | 314° |
| 2026-05-06 13:34 | 37.22476 | 126.32044 | 16920 ft | 259 kts | 314° |
| 2026-05-06 13:34 | 37.23854 | 126.30577 | 16843 ft | 255 kts | 314° |
| 2026-05-06 13:34 | 37.24770 | 126.29597 | 16781 ft | 254 kts | 313° |
| 2026-05-06 13:34 | 37.26552 | 126.27676 | 16680 ft | 252 kts | 313° |
| 2026-05-06 13:35 | 37.27473 | 126.26668 | 16683 ft | 274 kts | 312° |
| 2026-05-06 13:35 | 37.28958 | 126.23882 | 16683 ft | 300 kts | 284° |
| 2026-05-06 13:35 | 37.29189 | 126.21373 | 16665 ft | 282 kts | 265° |
| 2026-05-06 13:35 | 37.28730 | 126.19056 | 16660 ft | 268 kts | 247° |
| 2026-05-06 13:36 | 37.28154 | 126.17703 | 16658 ft | 259 kts | 242° |
| 2026-05-06 13:36 | 37.27250 | 126.15797 | 16643 ft | 246 kts | 242° |
| 2026-05-06 13:36 | 37.26385 | 126.13989 | 16415 ft | 242 kts | 242° |
| 2026-05-06 13:36 | 37.25528 | 126.12172 | 16046 ft | 243 kts | 246° |
| 2026-05-06 13:37 | 37.25160 | 126.09477 | 15552 ft | 241 kts | 278° |
| 2026-05-06 13:37 | 37.25571 | 126.07438 | 15275 ft | 239 kts | 284° |
| 2026-05-06 13:37 | 37.25907 | 126.06123 | 15070 ft | 239 kts | 286° |
| 2026-05-06 13:37 | 37.26435 | 126.04152 | 14759 ft | 238 kts | 286° |
| 2026-05-06 13:38 | 37.27347 | 126.01640 | 14344 ft | 240 kts | 298° |
| 2026-05-06 13:38 | 37.27951 | 126.00457 | 14128 ft | 240 kts | 300° |
| 2026-05-06 13:38 | 37.29163 | 125.98138 | 13711 ft | 240 kts | 300° |
| 2026-05-06 13:38 | 37.30078 | 125.96377 | 13405 ft | 239 kts | 300° |
| 2026-05-06 13:39 | 37.30680 | 125.95217 | 13229 ft | 238 kts | 300° |
| 2026-05-06 13:39 | 37.32096 | 125.93092 | 12813 ft | 241 kts | 314° |
| 2026-05-06 13:39 | 37.33367 | 125.91732 | 12504 ft | 241 kts | 316° |
| 2026-05-06 13:39 | 37.34238 | 125.90820 | 12316 ft | 240 kts | 316° |
| 2026-05-06 13:40 | 37.35964 | 125.89089 | 11945 ft | 241 kts | 327° |
| 2026-05-06 13:40 | 37.37017 | 125.88585 | 11720 ft | 247 kts | 345° |
| 2026-05-06 13:40 | 37.39316 | 125.89045 | 11230 ft | 263 kts | 27° |
| 2026-05-06 13:40 | 37.40631 | 125.90643 | 10930 ft | 267 kts | 53° |
| 2026-05-06 13:41 | 37.41614 | 125.92624 | 10630 ft | 267 kts | 57° |
| 2026-05-06 13:41 | 37.42237 | 125.93952 | 10374 ft | 269 kts | 57° |
| 2026-05-06 13:41 | 37.43566 | 125.96735 | 9363 ft | 292 kts | 57° |
| 2026-05-06 13:41 | 37.44631 | 125.98938 | 8859 ft | 296 kts | 57° |
| 2026-05-06 13:42 | 37.45694 | 126.01137 | 8610 ft | 290 kts | 57° |
| 2026-05-06 13:42 | 37.46395 | 126.02586 | 8381 ft | 289 kts | 57° |
| 2026-05-06 13:42 | 37.47786 | 126.05458 | 7870 ft | 289 kts | 57° |
| 2026-05-06 13:42 | 37.48490 | 126.06915 | 7625 ft | 288 kts | 58° |
| 2026-05-06 13:43 | 37.49519 | 126.09042 | 7306 ft | 286 kts | 58° |
| 2026-05-06 13:43 | 37.50556 | 126.11189 | 6976 ft | 285 kts | 58° |
| 2026-05-06 13:43 | 37.51578 | 126.13306 | 6647 ft | 282 kts | 58° |
| 2026-05-06 13:43 | 37.52600 | 126.15426 | 6315 ft | 281 kts | 59° |
| 2026-05-06 13:44 | 37.53610 | 126.17519 | 5978 ft | 280 kts | 59° |
| 2026-05-06 13:44 | 37.55125 | 126.20158 | 5684 ft | 272 kts | 51° |
| 2026-05-06 13:44 | 37.56275 | 126.21964 | 5671 ft | 258 kts | 51° |
| 2026-05-06 13:44 | 37.57365 | 126.23677 | 5662 ft | 244 kts | 51° |
| 2026-05-06 13:45 | 37.58063 | 126.24778 | 5592 ft | 238 kts | 51° |
| 2026-05-06 13:45 | 37.60441 | 126.28554 | 5032 ft | 234 kts | 55° |
| 2026-05-06 13:45 | 37.61015 | 126.30437 | 4675 ft | 232 kts | 91° |
| 2026-05-06 13:46 | 37.60894 | 126.31736 | 4532 ft | 222 kts | 113° |
| 2026-05-06 13:46 | 37.59726 | 126.33776 | 4061 ft | 213 kts | 145° |
| 2026-05-06 13:46 | 37.58979 | 126.34543 | 3965 ft | 202 kts | 148° |
| 2026-05-06 13:46 | 37.57909 | 126.35558 | 3840 ft | 183 kts | 149° |
| 2026-05-06 13:47 | 37.56591 | 126.36771 | 3427 ft | 170 kts | 152° |
| 2026-05-06 13:47 | 37.55949 | 126.37326 | 3035 ft | 173 kts | 152° |
| 2026-05-06 13:47 | 37.54967 | 126.38193 | 2566 ft | 171 kts | 151° |
| 2026-05-06 13:47 | 37.53698 | 126.39319 | 1981 ft | 167 kts | 151° |
| 2026-05-06 13:48 | 37.52766 | 126.40131 | 1545 ft | 167 kts | 150° |
| 2026-05-06 13:48 | 37.52121 | 126.40705 | 1103 ft | 172 kts | 149° |
| 2026-05-06 13:48 | 37.50875 | 126.41851 | 672 ft | 160 kts | 146° |
| 2026-05-06 13:48 | 37.49973 | 126.42609 | 454 ft | 151 kts | 147° |
| 2026-05-06 13:49 | 37.49425 | 126.43124 | 319 ft | 146 kts | 146° |
| 2026-05-06 13:49 | 37.48350 | 126.44050 | 62 ft | 140 kts | 146° |
| 2026-05-06 13:49 | 37.47620 | 126.44707 | 35 ft | 113 kts | 146° |
| 2026-05-06 13:49 | 37.47127 | 126.45142 | 35 ft | 61 kts | 144° |
| 2026-05-06 13:50 | 37.46907 | 126.45334 | 35 ft | 56 kts | 144° |
| 2026-05-06 13:50 | 37.46629 | 126.45557 | 35 ft | 36 kts | 159° |
| 2026-05-06 13:50 | 37.46440 | 126.45601 | 35 ft | 11 kts | 173° |
| 2026-05-06 13:50 | 37.46356 | 126.45615 | 35 ft | 12 kts | 170° |
| 2026-05-06 13:51 | 37.46351 | 126.45615 | 35 ft | 0 kts | 168° |
| 2026-05-06 13:52 | 37.46344 | 126.45618 | 35 ft | 4 kts | 168° |
| 2026-05-06 13:52 | 37.46288 | 126.45638 | 35 ft | 11 kts | 157° |
| 2026-05-06 13:52 | 37.46243 | 126.45671 | 35 ft | 0 kts | 144° |
| 2026-05-06 13:53 | 37.46240 | 126.45673 | 35 ft | 3 kts | 144° |
| 2026-05-06 13:53 | 37.46175 | 126.45731 | 35 ft | 17 kts | 146° |
| 2026-05-06 13:53 | 37.46074 | 126.45816 | 35 ft | 10 kts | 153° |
| 2026-05-06 13:54 | 37.46050 | 126.45827 | 35 ft | 4 kts | 169° |
| 2026-05-06 13:54 | 37.45995 | 126.45793 | 35 ft | 11 kts | 231° |
| 2026-05-06 13:54 | 37.45986 | 126.45779 | 35 ft | 3 kts | 233° |
| 2026-05-06 13:54 | 37.45959 | 126.45734 | 35 ft | 9 kts | 233° |
| 2026-05-06 13:55 | 37.45909 | 126.45647 | 35 ft | 11 kts | 236° |
| 2026-05-06 13:55 | 37.45851 | 126.45549 | 35 ft | 16 kts | 233° |
| 2026-05-06 13:55 | 37.45836 | 126.45452 | 35 ft | 10 kts | 303° |
| 2026-05-06 13:55 | 37.45922 | 126.45369 | 35 ft | 19 kts | 327° |
| 2026-05-06 13:56 | 37.46007 | 126.45294 | 35 ft | 14 kts | 326° |
| 2026-05-06 13:56 | 37.46058 | 126.45249 | 35 ft | 4 kts | 324° |
| 2026-05-06 13:56 | 37.46090 | 126.45221 | 35 ft | 7 kts | 324° |
| 2026-05-06 13:56 | 37.46096 | 126.45216 | 35 ft | 0 kts | 324° |
| 2026-05-06 13:57 | 37.46107 | 126.45207 | 35 ft | 4 kts | 324° |
| 2026-05-06 13:57 | 37.46153 | 126.45166 | 35 ft | 11 kts | 324° |
| 2026-05-06 13:57 | 37.46193 | 126.45131 | 35 ft | 12 kts | 324° |
| 2026-05-06 13:58 | 37.46311 | 126.45026 | 35 ft | 12 kts | 323° |
| 2026-05-06 13:58 | 37.46351 | 126.44989 | 35 ft | 10 kts | 323° |
| 2026-05-06 13:58 | 37.46416 | 126.44930 | 35 ft | 12 kts | 323° |
| 2026-05-06 13:58 | 37.46500 | 126.44855 | 35 ft | 11 kts | 325° |
| 2026-05-06 13:59 | 37.46532 | 126.44828 | 35 ft | 2 kts | 325° |
| 2026-05-06 13:59 | 37.46568 | 126.44797 | 35 ft | 10 kts | 326° |
| 2026-05-06 13:59 | 37.46636 | 126.44737 | 35 ft | 11 kts | 324° |
| 2026-05-06 13:59 | 37.46699 | 126.44670 | 35 ft | 12 kts | 300° |
| 2026-05-06 14:00 | 37.46689 | 126.44569 | 35 ft | 12 kts | 237° |
| 2026-05-06 14:00 | 37.46656 | 126.44504 | 35 ft | 13 kts | 236° |
| 2026-05-06 14:00 | 37.46608 | 126.44410 | 35 ft | 11 kts | 239° |
| 2026-05-06 14:00 | 37.46560 | 126.44323 | 35 ft | 12 kts | 233° |
| 2026-05-06 14:01 | 37.46486 | 126.44193 | 35 ft | 14 kts | 235° |
| 2026-05-06 14:01 | 37.46446 | 126.44120 | 35 ft | 15 kts | 236° |
| 2026-05-06 14:01 | 37.46439 | 126.44018 | 35 ft | 12 kts | 299° |
| 2026-05-06 14:01 | 37.46534 | 126.43918 | 35 ft | 14 kts | 325° |
| 2026-05-06 14:02 | 37.46605 | 126.43853 | 35 ft | 12 kts | 326° |
| 2026-05-06 14:02 | 37.46681 | 126.43845 | 35 ft | 8 kts | 21° |
| 2026-05-06 14:02 | 37.46719 | 126.43868 | 35 ft | 4 kts | 27° |
| 2026-05-06 14:02 | 37.46738 | 126.43883 | 35 ft | 0 kts | 32° |